Time;durP1;ratioP1;P1;durP2;ratioP2;P2;SDS_P1;SDS_P2;PMS_P1;PMS_P2;Temp;Humidity;BMP_temperature;BMP_pressure;BME280_temperature;BME280_humidity;BME280_pressure;Samples;Min_cycle;Max_cycle;Signal;HPM_P1;HPM_P2
2023/04/30 00:02:19;;;;;;;6.73;3.17;;;10.40;97.90;;;;;;5033237;28;20533;-50
2023/04/30 00:04:46;;;;;;;8.37;2.97;;;10.30;97.70;;;;;;5033782;28;20410;-51
2023/04/30 00:07:13;;;;;;;8.03;2.73;;;10.20;97.60;;;;;;5033478;28;20445;-50
2023/04/30 00:09:39;;;;;;;7.90;2.67;;;10.70;97.90;;;;;;5032902;28;20940;-49
2023/04/30 00:12:06;;;;;;;6.53;3.07;;;10.10;97.70;;;;;;5033921;28;20918;-49
2023/04/30 00:14:33;;;;;;;6.47;3.27;;;10.00;97.80;;;;;;5033314;28;20563;-50
2023/04/30 00:16:59;;;;;;;6.60;3.00;;;10.20;97.90;;;;;;5033359;28;20844;-50
2023/04/30 00:19:27;;;;;;;4.07;2.53;;;9.40;98.10;;;;;;5033096;28;20887;-50
2023/04/30 00:21:53;;;;;;;12.70;3.10;;;10.00;97.80;;;;;;5033497;28;20473;-49
2023/04/30 00:24:20;;;;;;;5.50;2.53;;;9.90;98.40;;;;;;5033556;28;20929;-50
2023/04/30 00:26:47;;;;;;;7.60;2.50;;;9.60;98.30;;;;;;5034800;28;20439;-49
2023/04/30 00:29:13;;;;;;;5.17;2.57;;;9.50;98.40;;;;;;5033150;28;20812;-50
2023/04/30 00:31:40;;;;;;;7.20;2.37;;;9.50;98.20;;;;;;5033033;28;20413;-50
2023/04/30 00:34:07;;;;;;;4.70;2.10;;;9.90;98.70;;;;;;5032859;28;20870;-50
2023/04/30 00:36:35;;;;;;;4.73;2.60;;;9.60;98.70;;;;;;5033160;28;20791;-50
2023/04/30 00:39:02;;;;;;;9.37;2.77;;;9.70;98.60;;;;;;5014837;28;20950;-48
2023/04/30 00:41:30;;;;;;;6.20;2.53;;;9.60;98.80;;;;;;5015189;28;20422;-49
2023/04/30 00:43:56;;;;;;;8.17;3.00;;;9.80;98.70;;;;;;5032809;28;20500;-50
2023/04/30 00:46:23;;;;;;;9.03;2.50;;;9.80;99.00;;;;;;5015220;28;20952;-49
2023/04/30 00:48:50;;;;;;;4.90;2.33;;;9.30;98.60;;;;;;5032711;28;20775;-49
2023/04/30 00:51:16;;;;;;;7.33;2.50;;;9.30;98.90;;;;;;5032855;28;20913;-49
2023/04/30 00:53:45;;;;;;;4.43;3.00;;;9.70;99.10;;;;;;5014781;28;20462;-49
2023/04/30 00:56:15;;;;;;;8.53;2.77;;;9.50;98.90;;;;;;5032806;28;20638;-49
2023/04/30 00:58:41;;;;;;;7.80;2.30;;;9.60;99.00;;;;;;5032490;28;20456;-49
2023/04/30 01:01:08;;;;;;;4.90;2.00;;;9.70;99.10;;;;;;5013780;28;20422;-49
2023/04/30 01:03:35;;;;;;;6.17;1.90;;;8.70;98.90;;;;;;5015123;28;20467;-49
2023/04/30 01:06:02;;;;;;;8.30;3.20;;;9.00;99.10;;;;;;5032634;28;20439;-49
2023/04/30 01:08:29;;;;;;;10.13;2.50;;;9.40;99.30;;;;;;5032232;28;20774;-49
2023/04/30 01:11:12;;;;;;;5.20;2.40;;;9.30;99.10;;;;;;5014774;28;20862;-49
2023/04/30 01:13:44;;;;;;;9.63;2.80;;;9.40;99.50;;;;;;5014726;28;20461;-50
2023/04/30 01:16:17;;;;;;;8.67;3.20;;;9.20;99.40;;;;;;5032295;28;20765;-51
2023/04/30 01:18:49;;;;;;;6.90;2.43;;;9.30;99.40;;;;;;5014317;28;20418;-49
2023/04/30 01:21:18;;;;;;;6.80;2.90;;;9.30;99.50;;;;;;5031922;28;20414;-49
2023/04/30 01:24:06;;;;;;;6.67;2.83;;;9.10;99.70;;;;;;5032545;28;20492;-49
2023/04/30 01:26:52;;;;;;;5.93;2.33;;;9.00;99.80;;;;;;5014726;28;20546;-49
2023/04/30 01:29:21;;;;;;;9.50;2.60;;;9.50;99.90;;;;;;5014268;28;20429;-50
2023/04/30 01:31:48;;;;;;;6.70;2.50;;;9.60;99.90;;;;;;5032075;28;20770;-49
2023/04/30 01:34:14;;;;;;;8.70;2.80;;;9.20;99.90;;;;;;5014341;28;20458;-49
2023/04/30 01:36:50;;;;;;;12.80;3.30;;;9.50;99.90;;;;;;5014603;28;20444;-50
2023/04/30 01:39:48;;;;;;;6.50;2.47;;;9.00;99.90;;;;;;5031870;28;20417;-49
2023/04/30 01:42:20;;;;;;;9.47;3.43;;;8.90;99.90;;;;;;5014115;28;20473;-50
2023/04/30 01:45:09;;;;;;;9.53;4.00;;;8.90;99.90;;;;;;5031906;28;20435;-50
2023/04/30 01:47:40;;;;;;;9.10;2.77;;;8.80;99.90;;;;;;5015024;28;20795;-50
2023/04/30 01:50:18;;;;;;;8.50;3.80;;;9.00;99.90;;;;;;5014111;28;20458;-50
2023/04/30 01:52:50;;;;;;;8.27;3.17;;;8.70;99.90;;;;;;5032220;28;20442;-50
2023/04/30 01:55:24;;;;;;;12.53;2.97;;;8.90;99.90;;;;;;5032044;28;20431;-51
2023/04/30 01:57:56;;;;;;;11.83;4.13;;;8.70;99.90;;;;;;5014208;28;20550;-50
2023/04/30 02:00:25;;;;;;;6.60;3.20;;;8.50;99.90;;;;;;5013553;28;20447;-50
2023/04/30 02:02:52;;;;;;;6.50;3.10;;;9.00;99.90;;;;;;5031967;28;20956;-50
2023/04/30 02:05:19;;;;;;;10.83;2.47;;;8.70;99.90;;;;;;5014048;28;20444;-50
2023/04/30 02:07:48;;;;;;;10.50;3.10;;;8.70;99.90;;;;;;5014435;28;20997;-50
2023/04/30 02:10:17;;;;;;;9.80;3.70;;;8.80;99.90;;;;;;5031606;28;20979;-50
2023/04/30 02:12:44;;;;;;;8.67;3.23;;;8.80;99.90;;;;;;5031889;28;20458;-50
2023/04/30 02:15:11;;;;;;;6.70;3.47;;;8.60;99.90;;;;;;5014064;28;20458;-50
2023/04/30 02:17:42;;;;;;;8.00;3.10;;;8.60;99.90;;;;;;5013919;28;20443;-51
2023/04/30 02:20:09;;;;;;;7.90;3.10;;;8.70;99.90;;;;;;5031533;28;20402;-50
2023/04/30 02:22:36;;;;;;;8.03;2.93;;;8.70;99.90;;;;;;5033307;28;20421;-50
2023/04/30 02:25:03;;;;;;;9.23;3.30;;;8.80;99.90;;;;;;5017663;28;20432;-50
2023/04/30 02:27:31;;;;;;;10.80;3.60;;;8.70;99.90;;;;;;5014886;28;20934;-50
2023/04/30 02:29:58;;;;;;;10.30;3.87;;;8.80;99.90;;;;;;5015103;28;20450;-50
2023/04/30 02:32:25;;;;;;;8.50;3.17;;;8.60;99.90;;;;;;5015401;28;20517;-51
2023/04/30 02:34:53;;;;;;;6.70;2.97;;;8.70;99.90;;;;;;5018316;28;20453;-50
2023/04/30 02:37:19;;;;;;;10.07;3.00;;;8.60;99.90;;;;;;5018325;28;20424;-51
2023/04/30 02:39:46;;;;;;;7.50;3.03;;;8.40;99.90;;;;;;5017421;28;20451;-50
2023/04/30 02:42:13;;;;;;;8.40;3.03;;;8.30;99.90;;;;;;5035837;28;20483;-51
2023/04/30 02:44:40;;;;;;;6.73;3.27;;;8.30;99.90;;;;;;5017624;28;20436;-49
2023/04/30 02:47:06;;;;;;;11.10;3.37;;;8.50;99.90;;;;;;5017584;28;20451;-50
2023/04/30 02:49:33;;;;;;;21.30;3.80;;;8.70;99.90;;;;;;5034862;28;20442;-50
2023/04/30 02:52:01;;;;;;;5.80;2.60;;;7.80;99.90;;;;;;5035147;28;20771;-48
2023/04/30 02:54:27;;;;;;;6.97;3.40;;;8.20;99.90;;;;;;5017744;28;20465;-49
2023/04/30 02:56:54;;;;;;;12.00;3.50;;;8.10;99.90;;;;;;5035256;28;20438;-50
2023/04/30 02:59:22;;;;;;;9.40;3.30;;;8.30;99.90;;;;;;5016861;28;20944;-50
2023/04/30 03:01:48;;;;;;;9.30;3.50;;;8.50;99.90;;;;;;5035148;28;20508;-49
2023/04/30 03:04:15;;;;;;;11.97;4.60;;;8.20;99.90;;;;;;5017102;28;20459;-50
2023/04/30 03:06:42;;;;;;;9.27;3.60;;;8.20;99.90;;;;;;5035004;28;20938;-50
2023/04/30 03:09:09;;;;;;;12.33;4.77;;;8.40;99.90;;;;;;5017187;28;20451;-49
2023/04/30 03:11:36;;;;;;;7.80;3.70;;;7.70;99.90;;;;;;5035258;28;20420;-50
2023/04/30 03:14:03;;;;;;;7.83;3.57;;;8.20;99.90;;;;;;5017484;28;20462;-49
2023/04/30 03:16:30;;;;;;;8.37;3.40;;;8.10;99.90;;;;;;5016912;28;20459;-52
2023/04/30 03:18:57;;;;;;;7.93;3.97;;;8.20;99.90;;;;;;5034315;28;20508;-50
2023/04/30 03:21:24;;;;;;;8.63;4.33;;;8.20;99.90;;;;;;5017226;28;20927;-50
2023/04/30 03:23:50;;;;;;;6.77;3.07;;;7.70;99.90;;;;;;5034942;28;20466;-49
2023/04/30 03:26:18;;;;;;;8.07;3.67;;;8.10;99.90;;;;;;5016904;28;20420;-51
2023/04/30 03:28:45;;;;;;;8.60;4.30;;;8.20;99.90;;;;;;5016399;28;20422;-50
2023/04/30 03:31:12;;;;;;;6.50;3.70;;;8.20;99.90;;;;;;5034450;28;20509;-51
2023/04/30 03:33:38;;;;;;;5.83;3.00;;;7.70;99.90;;;;;;5034413;28;20808;-50
2023/04/30 03:36:06;;;;;;;8.10;3.47;;;8.20;99.90;;;;;;5034367;28;20412;-50
2023/04/30 03:38:32;;;;;;;5.67;3.07;;;8.10;99.90;;;;;;5034078;28;20468;-50
2023/04/30 03:40:59;;;;;;;5.70;3.37;;;7.60;99.90;;;;;;5034353;28;20899;-50
2023/04/30 03:43:27;;;;;;;12.53;3.87;;;8.10;99.90;;;;;;5016479;28;20589;-50
2023/04/30 03:45:53;;;;;;;11.13;3.73;;;8.00;99.90;;;;;;5015676;28;20493;-50
2023/04/30 03:48:20;;;;;;;8.00;3.60;;;7.80;99.90;;;;;;5015880;28;20979;-50
2023/04/30 03:50:47;;;;;;;10.03;4.20;;;8.00;99.90;;;;;;5033893;28;20805;-50
2023/04/30 03:53:13;;;;;;;7.03;3.60;;;7.90;99.90;;;;;;5015825;28;20500;-50
2023/04/30 03:55:40;;;;;;;7.40;3.83;;;7.90;99.90;;;;;;5016299;28;20507;-49
2023/04/30 03:58:07;;;;;;;9.30;3.90;;;7.50;99.90;;;;;;5015883;28;20424;-50
2023/04/30 04:00:35;;;;;;;8.87;3.90;;;7.80;99.90;;;;;;5016000;28;20429;-50
2023/04/30 04:03:02;;;;;;;12.03;4.23;;;7.90;99.90;;;;;;5015951;28;20477;-51
2023/04/30 04:05:28;;;;;;;15.70;4.10;;;7.70;99.90;;;;;;5016011;28;20421;-50
2023/04/30 04:07:55;;;;;;;9.07;4.20;;;7.70;99.90;;;;;;5015910;28;20429;-50
2023/04/30 04:10:22;;;;;;;10.73;4.43;;;7.90;99.90;;;;;;5033516;28;20843;-50
2023/04/30 04:12:49;;;;;;;9.80;4.10;;;7.80;99.90;;;;;;5015771;28;20434;-50
2023/04/30 04:15:15;;;;;;;12.90;4.37;;;7.30;99.90;;;;;;5015657;28;20461;-50
2023/04/30 04:17:43;;;;;;;7.50;3.67;;;8.10;99.90;;;;;;5015827;28;20794;-49
2023/04/30 04:20:12;;;;;;;9.00;4.70;;;8.50;99.90;;;;;;5015372;28;20455;-49
2023/04/30 04:22:38;;;;;;;8.90;4.40;;;7.90;99.90;;;;;;5015566;28;20450;-50
2023/04/30 04:25:07;;;;;;;5.03;3.13;;;8.40;99.90;;;;;;5033535;28;20417;-50
2023/04/30 04:27:34;;;;;;;6.57;3.80;;;8.00;99.90;;;;;;5015670;28;20496;-50
2023/04/30 04:30:03;;;;;;;5.53;3.43;;;7.70;99.90;;;;;;5015289;28;20986;-51
2023/04/30 04:32:31;;;;;;;8.77;4.00;;;8.10;99.90;;;;;;5015833;28;20447;-51
2023/04/30 04:34:59;;;;;;;9.97;4.57;;;8.10;99.90;;;;;;5015531;28;20601;-51
2023/04/30 04:37:26;;;;;;;6.47;3.20;;;8.10;99.90;;;;;;5015394;28;20475;-51
2023/04/30 04:39:52;;;;;;;11.47;4.23;;;8.00;99.90;;;;;;5015026;28;20491;-50
2023/04/30 04:42:20;;;;;;;13.43;3.53;;;8.10;99.90;;;;;;5032979;28;20432;-50
2023/04/30 04:44:46;;;;;;;8.57;4.07;;;7.90;99.90;;;;;;5032971;28;20442;-50
2023/04/30 04:47:13;;;;;;;13.83;3.87;;;8.00;99.90;;;;;;5015156;28;20918;-50
2023/04/30 04:49:40;;;;;;;7.63;3.40;;;8.00;99.90;;;;;;5014831;28;20839;-51
2023/04/30 04:52:08;;;;;;;6.50;3.80;;;7.90;99.90;;;;;;5014898;28;20562;-49
2023/04/30 04:54:34;;;;;;;9.93;3.70;;;8.10;99.90;;;;;;5015073;28;20456;-50
2023/04/30 04:57:01;;;;;;;7.57;3.60;;;8.60;99.90;;;;;;5014368;28;20884;-50
2023/04/30 04:59:28;;;;;;;7.30;3.97;;;8.20;99.90;;;;;;5014902;28;20952;-52
2023/04/30 05:01:55;;;;;;;13.93;3.93;;;8.30;99.90;;;;;;5014946;28;20535;-50
2023/04/30 05:04:21;;;;;;;9.87;3.53;;;8.20;99.90;;;;;;5015053;28;20447;-51
2023/04/30 05:06:49;;;;;;;8.77;3.77;;;8.50;99.90;;;;;;5014961;28;20423;-50
2023/04/30 05:09:17;;;;;;;9.10;4.00;;;8.70;99.90;;;;;;5015487;28;20414;-51
2023/04/30 05:11:45;;;;;;;7.60;4.10;;;8.50;99.90;;;;;;5015090;28;20942;-51
2023/04/30 05:14:11;;;;;;;10.67;4.23;;;8.70;99.90;;;;;;5014717;28;20467;-51
2023/04/30 05:16:38;;;;;;;10.63;3.83;;;9.10;99.90;;;;;;5032542;28;20446;-51
2023/04/30 05:19:04;;;;;;;9.87;3.57;;;8.90;99.90;;;;;;5032208;28;20764;-51
2023/04/30 05:21:31;;;;;;;8.33;4.37;;;9.10;99.90;;;;;;5032276;28;20406;-50
2023/04/30 05:23:58;;;;;;;14.60;4.50;;;8.70;99.90;;;;;;5032331;28;20459;-51
2023/04/30 05:26:26;;;;;;;12.80;4.37;;;9.00;99.90;;;;;;5032287;28;20402;-51
2023/04/30 05:28:53;;;;;;;13.00;3.87;;;8.80;99.90;;;;;;5031913;28;20406;-51
2023/04/30 05:31:19;;;;;;;9.13;4.27;;;9.30;99.90;;;;;;5032239;28;20421;-50
2023/04/30 05:33:46;;;;;;;10.13;4.40;;;8.90;99.90;;;;;;5032259;28;20426;-49
2023/04/30 05:36:13;;;;;;;11.47;5.00;;;8.60;99.90;;;;;;5032105;28;20562;-50
2023/04/30 05:38:40;;;;;;;10.70;4.17;;;9.40;99.90;;;;;;5014225;28;20450;-50
2023/04/30 05:41:06;;;;;;;10.60;4.50;;;9.50;99.90;;;;;;5031963;28;20448;-50
2023/04/30 05:43:34;;;;;;;7.47;4.07;;;9.80;99.90;;;;;;5031952;28;20455;-50
2023/04/30 05:46:01;;;;;;;19.07;5.97;;;9.20;99.90;;;;;;5031785;28;20444;-49
2023/04/30 05:48:27;;;;;;;10.33;4.23;;;9.50;99.90;;;;;;5031903;28;20486;-51
2023/04/30 05:50:54;;;;;;;10.13;4.50;;;9.60;99.90;;;;;;5032563;28;20765;-51
2023/04/30 05:53:21;;;;;;;9.93;4.73;;;9.50;99.90;;;;;;5033901;28;20453;-50
2023/04/30 05:55:47;;;;;;;12.77;4.23;;;9.90;99.90;;;;;;5032177;28;20576;-49
2023/04/30 05:58:14;;;;;;;8.10;3.77;;;9.80;99.90;;;;;;5031433;28;20443;-50
2023/04/30 06:00:42;;;;;;;8.00;4.30;;;9.30;99.90;;;;;;5031905;28;20443;-52
2023/04/30 06:03:08;;;;;;;9.83;3.70;;;10.30;99.80;;;;;;5031791;28;20466;-50
2023/04/30 06:05:35;;;;;;;11.20;4.20;;;9.70;99.90;;;;;;5031901;28;20444;-52
2023/04/30 06:08:02;;;;;;;11.63;3.60;;;10.20;99.50;;;;;;5033054;28;20928;-50
2023/04/30 06:10:28;;;;;;;11.77;3.70;;;9.50;99.20;;;;;;5035716;28;20478;-49
2023/04/30 06:12:55;;;;;;;6.50;3.30;;;10.20;99.10;;;;;;5035827;28;20455;-50
2023/04/30 06:15:22;;;;;;;12.60;4.13;;;10.40;99.00;;;;;;5035711;28;20454;-51
2023/04/30 06:17:50;;;;;;;10.50;4.00;;;10.60;99.10;;;;;;5036096;28;20435;-51
2023/04/30 06:20:17;;;;;;;8.13;4.10;;;10.10;98.40;;;;;;5035314;28;20402;-50
2023/04/30 06:22:43;;;;;;;8.93;3.77;;;10.20;98.20;;;;;;5035644;28;20436;-50
2023/04/30 06:25:10;;;;;;;8.63;4.27;;;10.50;98.30;;;;;;5017907;28;20425;-50
2023/04/30 06:27:36;;;;;;;8.77;3.60;;;10.70;98.30;;;;;;5017783;28;20425;-51
2023/04/30 06:30:03;;;;;;;8.23;3.90;;;10.60;98.20;;;;;;5035040;28;20793;-51
2023/04/30 06:32:30;;;;;;;5.27;3.70;;;10.20;97.90;;;;;;5017503;28;20471;-51
2023/04/30 06:34:58;;;;;;;8.60;4.17;;;10.10;97.80;;;;;;5035135;28;20788;-51
2023/04/30 06:37:24;;;;;;;8.37;4.00;;;10.00;97.70;;;;;;5035130;28;20409;-50
2023/04/30 06:39:51;;;;;;;12.43;5.20;;;10.40;97.80;;;;;;5034848;28;20466;-50
2023/04/30 06:42:17;;;;;;;8.23;3.60;;;10.10;97.50;;;;;;5035189;28;20426;-50
2023/04/30 06:44:46;;;;;;;13.40;4.10;;;10.30;97.70;;;;;;5035160;28;20439;-50
2023/04/30 06:47:12;;;;;;;12.33;4.50;;;10.30;97.60;;;;;;5035812;28;20833;-51
2023/04/30 06:49:39;;;;;;;9.87;3.77;;;10.10;97.30;;;;;;5034750;28;20489;-52
2023/04/30 06:52:07;;;;;;;8.50;4.53;;;9.70;97.40;;;;;;5034997;28;21339;-52
2023/04/30 06:54:33;;;;;;;10.70;3.60;;;10.20;97.00;;;;;;5035032;28;20431;-51
2023/04/30 06:57:00;;;;;;;9.70;3.93;;;10.30;96.80;;;;;;5035107;28;20440;-50
2023/04/30 06:59:27;;;;;;;10.80;3.90;;;9.80;97.10;;;;;;5034487;28;20439;-50
2023/04/30 07:01:53;;;;;;;6.60;3.63;;;10.40;97.00;;;;;;5034642;28;21005;-51
2023/04/30 07:04:20;;;;;;;5.93;3.57;;;10.50;96.80;;;;;;5016631;28;20447;-52
2023/04/30 07:06:47;;;;;;;12.83;3.93;;;10.70;97.30;;;;;;5034748;28;20413;-50
2023/04/30 07:09:15;;;;;;;7.70;3.87;;;10.10;96.90;;;;;;5016629;28;20977;-50
2023/04/30 07:11:43;;;;;;;9.57;4.00;;;10.60;96.50;;;;;;5034516;28;20440;-49
2023/04/30 07:14:09;;;;;;;10.30;4.57;;;10.70;96.40;;;;;;5035971;28;20426;-50
2023/04/30 07:16:36;;;;;;;10.20;3.20;;;10.70;96.40;;;;;;5035070;28;20493;-50
2023/04/30 07:19:02;;;;;;;6.57;3.10;;;10.80;96.40;;;;;;5032796;28;20986;-51
2023/04/30 07:21:31;;;;;;;7.37;3.67;;;11.30;96.40;;;;;;5034522;28;20433;-51
2023/04/30 07:23:58;;;;;;;10.10;3.60;;;11.20;96.10;;;;;;5034290;28;20509;-50
2023/04/30 07:26:25;;;;;;;9.47;3.93;;;11.30;96.20;;;;;;5034307;28;20493;-52
2023/04/30 07:28:52;;;;;;;7.20;3.70;;;11.00;95.70;;;;;;5034106;28;20407;-50
2023/04/30 07:31:19;;;;;;;7.50;3.87;;;10.30;95.10;;;;;;5034294;28;20509;-52
2023/04/30 07:33:46;;;;;;;10.43;4.00;;;11.00;95.30;;;;;;5033994;28;20551;-51
2023/04/30 07:36:12;;;;;;;9.03;4.20;;;10.80;95.10;;;;;;5034086;28;20500;-50
2023/04/30 07:38:39;;;;;;;8.20;3.80;;;10.90;95.10;;;;;;5033959;28;20433;-51
2023/04/30 07:41:07;;;;;;;9.30;3.80;;;10.70;94.90;;;;;;5034063;28;20914;-51
2023/04/30 07:43:34;;;;;;;10.37;4.17;;;11.40;95.00;;;;;;5034157;28;20853;-51
2023/04/30 07:46:02;;;;;;;8.27;3.43;;;11.50;94.70;;;;;;5015876;28;20775;-51
2023/04/30 07:48:29;;;;;;;9.73;3.53;;;11.20;94.10;;;;;;5015609;28;20449;-51
2023/04/30 07:50:56;;;;;;;7.93;4.00;;;11.30;93.70;;;;;;5016128;28;20818;-50
2023/04/30 07:53:23;;;;;;;10.07;4.23;;;11.00;94.00;;;;;;5057117;22;20558;-50
2023/04/30 07:55:49;;;;;;;8.93;3.70;;;10.80;94.00;;;;;;5033877;28;20833;-51
2023/04/30 07:58:16;;;;;;;10.70;4.00;;;11.20;94.20;;;;;;5033457;28;20410;-50
2023/04/30 08:00:44;;;;;;;7.70;4.20;;;11.10;93.70;;;;;;5033895;28;20411;-51
2023/04/30 08:03:11;;;;;;;8.90;4.17;;;11.00;93.90;;;;;;5033688;28;20817;-51
2023/04/30 08:05:37;;;;;;;8.43;3.70;;;11.30;94.00;;;;;;5033650;28;20423;-51
2023/04/30 08:08:04;;;;;;;9.83;3.53;;;11.30;93.60;;;;;;5033341;28;20820;-51
2023/04/30 08:10:31;;;;;;;7.47;4.00;;;11.30;93.30;;;;;;5032211;28;20444;-51
2023/04/30 08:12:58;;;;;;;7.13;3.83;;;11.30;92.80;;;;;;5033652;28;20817;-51
2023/04/30 08:15:25;;;;;;;7.53;3.93;;;11.20;92.10;;;;;;5033698;28;20626;-51
2023/04/30 08:17:53;;;;;;;5.67;3.30;;;11.30;92.30;;;;;;5033245;28;20434;-51
2023/04/30 08:20:22;;;;;;;5.83;3.47;;;11.50;91.90;;;;;;5033273;28;20437;-51
2023/04/30 08:22:48;;;;;;;9.60;3.60;;;11.20;91.50;;;;;;5033391;28;20488;-51
2023/04/30 08:25:15;;;;;;;8.83;2.80;;;11.30;91.80;;;;;;5033171;28;20535;-51
2023/04/30 08:27:42;;;;;;;7.40;3.60;;;10.60;90.90;;;;;;5032580;28;20437;-52
2023/04/30 08:30:09;;;;;;;11.70;3.80;;;11.30;90.70;;;;;;5032626;28;20408;-51
2023/04/30 08:32:36;;;;;;;9.27;5.53;;;11.50;90.20;;;;;;5032934;28;20451;-51
2023/04/30 08:35:04;;;;;;;7.90;3.90;;;11.30;89.60;;;;;;5032957;28;20555;-51
2023/04/30 08:37:30;;;;;;;8.00;3.27;;;11.90;89.60;;;;;;5032833;28;20411;-51
2023/04/30 08:39:57;;;;;;;5.80;3.17;;;11.30;89.10;;;;;;5032436;28;20821;-51
2023/04/30 08:42:28;;;;;;;6.13;3.70;;;11.40;88.40;;;;;;5032735;28;20998;-51
2023/04/30 08:44:55;;;;;;;4.97;3.33;;;11.40;86.60;;;;;;5032845;28;20543;-51
2023/04/30 08:47:23;;;;;;;6.30;3.43;;;11.40;86.20;;;;;;5032805;28;20740;-52
2023/04/30 08:49:50;;;;;;;5.00;2.77;;;11.90;87.00;;;;;;5032436;28;20970;-51
2023/04/30 08:52:19;;;;;;;6.50;2.60;;;11.20;81.50;;;;;;5032656;28;20407;-51
2023/04/30 08:54:47;;;;;;;6.67;3.30;;;11.20;77.90;;;;;;5031346;28;20963;-50
2023/04/30 08:57:14;;;;;;;7.63;3.37;;;11.70;79.60;;;;;;5032712;28;20462;-50
2023/04/30 08:59:41;;;;;;;6.47;3.30;;;11.10;80.00;;;;;;5032425;28;20787;-51
2023/04/30 09:02:09;;;;;;;6.00;3.20;;;11.40;80.80;;;;;;5032387;28;20437;-52
2023/04/30 09:04:35;;;;;;;8.80;3.47;;;11.30;79.20;;;;;;5032972;28;20500;-50
2023/04/30 09:07:03;;;;;;;7.53;2.87;;;11.40;77.70;;;;;;5032503;28;20407;-51
2023/04/30 09:09:38;;;;;;;8.53;3.50;;;11.80;76.20;;;;;;5032302;28;20868;-51
2023/04/30 09:12:13;;;;;;;3.87;2.10;;;11.20;75.20;;;;;;5032435;28;20447;-51
2023/04/30 09:14:40;;;;;;;7.27;2.43;;;11.30;76.20;;;;;;5032420;28;20522;-50
2023/04/30 09:17:08;;;;;;;5.00;2.57;;;11.50;77.00;;;;;;5032139;28;20899;-50
2023/04/30 09:19:35;;;;;;;4.63;2.30;;;11.40;75.60;;;;;;5031316;28;20443;-52
2023/04/30 09:22:20;;;;;;;3.40;2.50;;;11.40;73.30;;;;;;5030019;28;20518;-52
2023/04/30 09:24:50;;;;;;;8.13;2.37;;;11.30;71.40;;;;;;5031200;28;20816;-52
2023/04/30 09:27:18;;;;;;;7.00;2.57;;;11.20;71.80;;;;;;5031116;28;20461;-50
2023/04/30 09:29:45;;;;;;;5.57;3.03;;;11.70;73.90;;;;;;5031284;28;20415;-51
2023/04/30 09:32:12;;;;;;;5.80;3.47;;;11.30;74.00;;;;;;5031547;28;20808;-51
2023/04/30 09:34:39;;;;;;;6.53;2.63;;;11.40;74.50;;;;;;5029851;28;20517;-51
2023/04/30 09:37:06;;;;;;;6.37;2.57;;;11.10;74.30;;;;;;5029978;28;20535;-51
2023/04/30 09:39:33;;;;;;;6.03;2.77;;;12.10;74.30;;;;;;5030943;28;20972;-50
2023/04/30 09:42:11;;;;;;;5.73;2.30;;;12.10;72.80;;;;;;5030481;28;20490;-51
2023/04/30 09:44:39;;;;;;;3.63;2.30;;;11.50;69.60;;;;;;5031305;28;20955;-51
2023/04/30 09:47:12;;;;;;;3.30;2.20;;;11.80;66.90;;;;;;5031330;28;20418;-50
2023/04/30 09:49:40;;;;;;;5.23;2.47;;;12.00;68.20;;;;;;5030043;28;20443;-51
2023/04/30 09:52:08;;;;;;;4.30;2.30;;;11.50;66.60;;;;;;5031454;28;20911;-51
2023/04/30 09:54:36;;;;;;;4.40;2.60;;;11.80;65.10;;;;;;5031746;28;20404;-51
2023/04/30 09:57:03;;;;;;;5.30;2.43;;;11.70;65.50;;;;;;5031527;28;20518;-51
2023/04/30 09:59:34;;;;;;;6.17;2.50;;;11.50;64.50;;;;;;5030990;28;20434;-51
2023/04/30 10:02:02;;;;;;;7.50;3.70;;;11.60;63.40;;;;;;5030590;28;20793;-51
2023/04/30 10:04:32;;;;;;;4.80;3.43;;;11.50;61.80;;;;;;5031496;28;20441;-51
2023/04/30 10:07:00;;;;;;;3.83;2.50;;;11.90;62.80;;;;;;5031608;28;20440;-52
2023/04/30 10:09:30;;;;;;;5.93;3.17;;;11.60;62.70;;;;;;5031299;28;20926;-51
2023/04/30 10:11:58;;;;;;;4.30;2.77;;;11.80;64.20;;;;;;5031490;28;20433;-51
2023/04/30 10:14:27;;;;;;;6.10;2.67;;;11.80;65.10;;;;;;5031403;28;20466;-51
2023/04/30 10:16:59;;;;;;;5.80;2.87;;;12.00;65.50;;;;;;5031054;28;20981;-51
2023/04/30 10:19:29;;;;;;;6.70;3.00;;;11.50;65.60;;;;;;5031131;28;20469;-51
2023/04/30 10:21:56;;;;;;;6.43;3.17;;;11.60;67.10;;;;;;5031440;28;20777;-51
2023/04/30 10:24:23;;;;;;;6.67;2.77;;;11.70;67.70;;;;;;5031391;28;20497;-51
2023/04/30 10:26:50;;;;;;;7.07;3.43;;;11.50;66.60;;;;;;5031526;28;20431;-51
2023/04/30 10:29:17;;;;;;;5.73;3.00;;;12.10;66.30;;;;;;5031327;28;20757;-51
2023/04/30 10:31:47;;;;;;;5.50;2.97;;;12.00;66.00;;;;;;5031409;28;20502;-51
2023/04/30 10:34:22;;;;;;;5.40;2.70;;;11.90;64.80;;;;;;5031145;28;20430;-52
2023/04/30 10:36:54;;;;;;;4.30;2.77;;;12.00;65.10;;;;;;5031252;28;21006;-51
2023/04/30 10:39:26;;;;;;;6.77;2.63;;;12.00;65.10;;;;;;5030573;28;20434;-50
2023/04/30 10:42:01;;;;;;;6.07;2.67;;;11.60;64.20;;;;;;5031037;28;20930;-51
2023/04/30 10:44:27;;;;;;;6.40;2.80;;;11.90;65.00;;;;;;5030514;28;20498;-51
2023/04/30 10:46:59;;;;;;;5.13;2.83;;;12.00;65.30;;;;;;5030865;28;21120;-51
2023/04/30 10:49:27;;;;;;;3.43;2.50;;;12.00;65.40;;;;;;5030534;28;20499;-51
2023/04/30 10:51:55;;;;;;;5.93;3.20;;;12.20;66.60;;;;;;5031057;28;20459;-51
2023/04/30 10:54:26;;;;;;;4.50;2.50;;;12.50;67.70;;;;;;5032603;28;20501;-50
2023/04/30 10:56:55;;;;;;;10.20;3.63;;;12.70;67.70;;;;;;5034765;28;20487;-52
2023/04/30 10:59:23;;;;;;;7.07;2.73;;;12.20;66.50;;;;;;5032966;28;20505;-53
2023/04/30 11:01:56;;;;;;;9.90;4.03;;;12.60;67.00;;;;;;5034569;28;20887;-51
2023/04/30 11:04:23;;;;;;;7.80;2.90;;;12.60;66.50;;;;;;5034019;28;20425;-51
2023/04/30 11:06:56;;;;;;;5.30;2.90;;;12.40;66.20;;;;;;5033905;28;20481;-52
2023/04/30 11:09:37;;;;;;;7.43;3.13;;;12.60;66.00;;;;;;5034363;28;20485;-50
2023/04/30 11:12:09;;;;;;;5.30;2.63;;;12.10;65.30;;;;;;5034361;28;20986;-52
2023/04/30 11:14:41;;;;;;;6.43;2.87;;;12.50;65.50;;;;;;5034111;28;20478;-50
2023/04/30 11:17:09;;;;;;;8.40;3.00;;;13.00;65.40;;;;;;5034626;28;20462;-52
2023/04/30 11:19:35;;;;;;;6.80;2.63;;;12.90;66.30;;;;;;5034109;28;20918;-51
2023/04/30 11:22:21;;;;;;;8.23;3.60;;;12.90;65.90;;;;;;5034409;28;20415;-51
2023/04/30 11:24:52;;;;;;;6.70;3.10;;;12.60;65.40;;;;;;5034255;28;20431;-53
2023/04/30 11:27:23;;;;;;;5.80;3.00;;;12.80;64.30;;;;;;5034227;28;20431;-51
2023/04/30 11:29:51;;;;;;;8.60;2.63;;;12.40;64.70;;;;;;5033631;28;20413;-51
2023/04/30 11:32:18;;;;;;;4.57;2.63;;;12.90;64.30;;;;;;5033896;28;20443;-52
2023/04/30 11:34:45;;;;;;;5.77;3.20;;;12.20;62.70;;;;;;5033769;28;20435;-51
2023/04/30 11:37:13;;;;;;;5.43;2.70;;;13.10;63.70;;;;;;5033392;28;20478;-51
2023/04/30 11:39:42;;;;;;;5.57;3.20;;;12.60;63.40;;;;;;5033221;28;20428;-51
2023/04/30 11:42:09;;;;;;;5.83;2.93;;;12.40;63.70;;;;;;5033767;28;20441;-51
2023/04/30 11:44:37;;;;;;;4.90;2.97;;;12.50;64.60;;;;;;5033542;28;20429;-50
2023/04/30 11:47:04;;;;;;;6.47;3.10;;;12.10;63.80;;;;;;5034179;28;20556;-51
2023/04/30 11:49:32;;;;;;;6.70;3.30;;;12.60;62.80;;;;;;5033085;28;20433;-51
2023/04/30 11:51:58;;;;;;;16.83;3.70;;;12.60;62.50;;;;;;5033719;28;20419;-54
2023/04/30 11:54:25;;;;;;;10.63;3.63;;;13.00;63.40;;;;;;5033632;28;20986;-51
2023/04/30 11:56:53;;;;;;;4.07;2.30;;;12.60;63.20;;;;;;5033616;28;20478;-50
2023/04/30 11:59:19;;;;;;;5.93;3.47;;;12.60;62.80;;;;;;5033131;28;20438;-50
2023/04/30 12:01:46;;;;;;;6.30;3.13;;;12.60;63.30;;;;;;5033759;28;20850;-51
2023/04/30 12:04:13;;;;;;;5.07;2.80;;;12.80;63.20;;;;;;5033166;28;20973;-51
2023/04/30 12:06:41;;;;;;;8.53;2.70;;;12.80;63.10;;;;;;5031865;28;20508;-52
2023/04/30 12:09:09;;;;;;;8.53;2.97;;;12.70;63.10;;;;;;5032745;28;20437;-51
2023/04/30 12:11:36;;;;;;;7.20;2.97;;;12.70;62.90;;;;;;5033578;28;20417;-51
2023/04/30 12:14:06;;;;;;;7.70;2.90;;;13.20;64.30;;;;;;5033342;28;20427;-51
2023/04/30 12:16:41;;;;;;;6.57;2.73;;;12.70;63.30;;;;;;5031619;28;20521;-50
2023/04/30 12:19:08;;;;;;;5.27;2.93;;;13.10;63.70;;;;;;5032908;28;20419;-51
2023/04/30 12:21:35;;;;;;;5.50;2.70;;;13.10;63.30;;;;;;5033419;28;20417;-51
2023/04/30 12:24:02;;;;;;;7.07;3.30;;;13.20;63.10;;;;;;5033285;28;20541;-51
2023/04/30 12:26:35;;;;;;;4.00;2.87;;;13.10;63.40;;;;;;5032906;28;20420;-52
2023/04/30 12:29:05;;;;;;;6.17;3.03;;;13.20;64.10;;;;;;5032595;28;20553;-51
2023/04/30 12:31:33;;;;;;;7.07;2.83;;;12.60;64.00;;;;;;5032838;28;20444;-51
2023/04/30 12:34:04;;;;;;;7.80;2.90;;;13.40;65.00;;;;;;5032947;28;20437;-51
2023/04/30 12:36:32;;;;;;;8.20;2.90;;;12.50;63.00;;;;;;5033269;28;20455;-52
2023/04/30 12:39:06;;;;;;;4.80;3.20;;;12.80;64.00;;;;;;5031739;28;20469;-51
2023/04/30 12:41:36;;;;;;;10.30;7.07;;;12.90;63.90;;;;;;5032347;28;20409;-50
2023/04/30 12:44:18;;;;;;;8.63;3.73;;;13.40;65.10;;;;;;5032166;28;20450;-53
2023/04/30 12:46:46;;;;;;;4.97;2.87;;;13.40;64.00;;;;;;5032833;28;20481;-51
2023/04/30 12:49:12;;;;;;;11.80;3.50;;;13.40;64.10;;;;;;5032245;28;20412;-51
2023/04/30 12:51:42;;;;;;;6.00;3.50;;;13.20;64.10;;;;;;5032626;28;20448;-52
2023/04/30 12:54:09;;;;;;;12.67;3.47;;;13.40;64.10;;;;;;5032418;28;20961;-51
2023/04/30 12:56:36;;;;;;;8.63;3.73;;;13.40;63.90;;;;;;5032230;28;21032;-51